Time;durP1;ratioP1;P1;durP2;ratioP2;P2;SDS_P1;SDS_P2;PMS_P1;PMS_P2;Temp;Humidity;BMP_temperature;BMP_pressure;BME280_temperature;BME280_humidity;BME280_pressure;Samples;Min_cycle;Max_cycle;Signal;HPM_P1;HPM_P2
2021/10/27 00:01:54;;;;;;;59.13;20.95;;;;;;;;;;5016301;28;20045;-76
2021/10/27 00:04:22;;;;;;;50.00;18.90;;;;;;;;;;5016389;28;20056;-76
2021/10/27 00:06:49;;;;;;;37.00;17.52;;;;;;;;;;5017057;28;20068;-76
2021/10/27 00:09:16;;;;;;;38.85;17.17;;;;;;;;;;5019246;28;20153;-76
2021/10/27 00:11:43;;;;;;;40.25;19.33;;;;;;;;;;5019835;28;20579;-76
2021/10/27 00:14:10;;;;;;;40.08;17.83;;;;;;;;;;5017728;28;20103;-76
2021/10/27 00:16:38;;;;;;;38.58;17.90;;;;;;;;;;4994617;28;20063;-76
2021/10/27 00:19:05;;;;;;;34.47;16.65;;;;;;;;;;4994250;28;20064;-76
2021/10/27 00:21:32;;;;;;;37.78;15.82;;;;;;;;;;5010774;28;20142;-76
2021/10/27 00:23:59;;;;;;;33.85;15.82;;;;;;;;;;5008089;28;20049;-76
2021/10/27 00:26:26;;;;;;;33.70;16.73;;;;;;;;;;4994531;28;20076;-76
2021/10/27 00:28:58;;;;;;;37.58;17.08;;;;;;;;;;5006667;28;20057;-76
2021/10/27 00:31:25;;;;;;;42.13;16.17;;;;;;;;;;5001031;28;20790;-76
2021/10/27 00:33:52;;;;;;;37.90;17.20;;;;;;;;;;5006461;28;21013;-76
2021/10/27 00:36:20;;;;;;;34.92;15.77;;;;;;;;;;5000810;28;20059;-76
2021/10/27 00:38:47;;;;;;;32.00;16.17;;;;;;;;;;5002062;28;20054;-76
2021/10/27 00:41:14;;;;;;;34.03;17.38;;;;;;;;;;5003495;28;20053;-76
2021/10/27 00:43:42;;;;;;;36.00;16.10;;;;;;;;;;5002219;28;20168;-76
2021/10/27 00:46:22;;;;;;;34.55;16.17;;;;;;;;;;5008149;28;20049;-76
2021/10/27 00:48:50;;;;;;;37.35;15.90;;;;;;;;;;5008498;28;20053;-76
2021/10/27 00:51:18;;;;;;;41.85;16.80;;;;;;;;;;5008795;28;20692;-76
2021/10/27 00:53:46;;;;;;;33.60;16.88;;;;;;;;;;5008869;28;20199;-76
2021/10/27 00:56:14;;;;;;;40.03;16.45;;;;;;;;;;5008760;28;20076;-76
2021/10/27 00:58:42;;;;;;;33.50;16.60;;;;;;;;;;5013288;28;20500;-76
2021/10/27 01:01:10;;;;;;;39.22;17.63;;;;;;;;;;5017603;28;20081;-76
2021/10/27 01:03:37;;;;;;;41.08;16.98;;;;;;;;;;5013689;28;20935;-76
2021/10/27 01:06:05;;;;;;;37.17;17.70;;;;;;;;;;5016890;28;20103;-76
2021/10/27 01:08:34;;;;;;;35.97;18.00;;;;;;;;;;5018141;28;20137;-76
2021/10/27 01:11:01;;;;;;;37.33;18.23;;;;;;;;;;5017027;28;20053;-76
2021/10/27 01:13:28;;;;;;;44.38;19.80;;;;;;;;;;5013783;28;20064;-76
2021/10/27 01:15:56;;;;;;;39.05;18.65;;;;;;;;;;5016524;28;20509;-76
2021/10/27 01:18:23;;;;;;;44.70;19.83;;;;;;;;;;5017152;28;20144;-76
2021/10/27 01:20:51;;;;;;;42.63;18.85;;;;;;;;;;5016580;28;20053;-76
2021/10/27 01:23:19;;;;;;;44.22;19.42;;;;;;;;;;5000318;28;20049;-76
2021/10/27 01:25:47;;;;;;;47.92;19.27;;;;;;;;;;5001145;28;20052;-76
2021/10/27 01:28:14;;;;;;;49.50;19.38;;;;;;;;;;5015329;28;20053;-76
2021/10/27 01:30:41;;;;;;;45.33;19.17;;;;;;;;;;5008312;28;20140;-77
2021/10/27 01:33:08;;;;;;;43.13;18.02;;;;;;;;;;5018057;28;20077;-76
2021/10/27 01:35:35;;;;;;;46.15;18.77;;;;;;;;;;4989042;28;20089;-76
2021/10/27 01:38:02;;;;;;;38.10;19.17;;;;;;;;;;5003611;28;20168;-76
2021/10/27 01:40:29;;;;;;;35.05;17.25;;;;;;;;;;5003741;28;20456;-76
2021/10/27 01:42:57;;;;;;;35.58;18.02;;;;;;;;;;4999497;28;20049;-77
2021/10/27 01:45:28;;;;;;;40.72;18.05;;;;;;;;;;5002780;28;20052;-76
2021/10/27 01:47:55;;;;;;;45.97;18.80;;;;;;;;;;5000958;28;20076;-76
2021/10/27 01:50:23;;;;;;;49.50;19.00;;;;;;;;;;5000079;28;20049;-76
2021/10/27 01:52:50;;;;;;;41.60;17.90;;;;;;;;;;5003193;28;20056;-76
2021/10/27 01:55:18;;;;;;;34.95;16.55;;;;;;;;;;4988431;28;20049;-76
2021/10/27 01:57:45;;;;;;;50.10;18.20;;;;;;;;;;5012525;28;20073;-87
2021/10/27 02:00:12;;;;;;;44.00;17.70;;;;;;;;;;5007963;28;20171;-76
2021/10/27 02:02:39;;;;;;;37.83;16.85;;;;;;;;;;5004760;28;20049;-76
2021/10/27 02:05:07;;;;;;;47.60;18.25;;;;;;;;;;5009827;28;20206;-76
2021/10/27 02:07:34;;;;;;;45.55;17.73;;;;;;;;;;4994333;28;20054;-76
2021/10/27 02:10:05;;;;;;;41.95;17.35;;;;;;;;;;5017837;28;20156;-86
2021/10/27 02:12:33;;;;;;;52.15;18.98;;;;;;;;;;5016311;28;20135;-86
2021/10/27 02:15:00;;;;;;;39.47;18.70;;;;;;;;;;5021812;28;20181;-86
2021/10/27 02:17:27;;;;;;;47.75;17.23;;;;;;;;;;5019041;28;20169;-86
2021/10/27 02:19:56;;;;;;;41.38;17.95;;;;;;;;;;5019600;28;20422;-86
2021/10/27 02:22:23;;;;;;;42.35;17.48;;;;;;;;;;5018838;28;20078;-86
2021/10/27 02:24:51;;;;;;;36.63;17.73;;;;;;;;;;5022947;28;20128;-87
2021/10/27 02:27:18;;;;;;;36.85;16.80;;;;;;;;;;5024344;28;20128;-87
2021/10/27 02:29:46;;;;;;;34.67;16.15;;;;;;;;;;5029515;28;20517;-87
2021/10/27 02:32:13;;;;;;;41.63;18.42;;;;;;;;;;5030757;28;20140;-88
2021/10/27 02:34:40;;;;;;;45.63;17.77;;;;;;;;;;5014108;28;20525;-88
2021/10/27 02:37:07;;;;;;;34.00;16.17;;;;;;;;;;5015535;28;20610;-87
2021/10/27 02:39:34;;;;;;;38.00;16.58;;;;;;;;;;5014409;28;20045;-88
2021/10/27 02:42:02;;;;;;;39.20;16.95;;;;;;;;;;5014568;28;20083;-86
2021/10/27 02:44:29;;;;;;;40.70;16.23;;;;;;;;;;5014755;28;20162;-87
2021/10/27 02:46:56;;;;;;;34.65;16.27;;;;;;;;;;5012062;28;20837;-87
2021/10/27 02:49:23;;;;;;;49.47;17.88;;;;;;;;;;5031865;28;20149;-86
2021/10/27 02:51:50;;;;;;;37.40;16.30;;;;;;;;;;5030120;28;20486;-86
2021/10/27 02:54:18;;;;;;;48.08;16.38;;;;;;;;;;5014718;28;20056;-87
2021/10/27 02:56:45;;;;;;;39.90;16.65;;;;;;;;;;5031362;28;20077;-87
2021/10/27 02:59:12;;;;;;;35.42;15.07;;;;;;;;;;5029982;28;20072;-87
2021/10/27 03:01:39;;;;;;;32.70;15.30;;;;;;;;;;5027276;28;20084;-87
2021/10/27 03:04:08;;;;;;;36.40;15.70;;;;;;;;;;5030046;28;20045;-87
2021/10/27 03:06:36;;;;;;;32.72;14.63;;;;;;;;;;5031381;28;20143;-88
2021/10/27 03:09:03;;;;;;;36.35;14.45;;;;;;;;;;5030971;28;20085;-87
2021/10/27 03:11:30;;;;;;;29.48;13.95;;;;;;;;;;5029639;28;20487;-87
2021/10/27 03:13:57;;;;;;;43.63;16.25;;;;;;;;;;5008143;28;20987;-87
2021/10/27 03:16:24;;;;;;;39.95;14.23;;;;;;;;;;5017391;28;20137;-87
2021/10/27 03:18:52;;;;;;;30.85;15.10;;;;;;;;;;5018342;28;20045;-86
2021/10/27 03:21:19;;;;;;;40.67;15.73;;;;;;;;;;5017780;28;20084;-86
2021/10/27 03:23:52;;;;;;;37.90;13.25;;;;;;;;;;5020599;28;20125;-86
2021/10/27 03:26:19;;;;;;;34.35;14.23;;;;;;;;;;5021314;28;20204;-87
2021/10/27 03:28:46;;;;;;;33.83;15.45;;;;;;;;;;5020349;28;20059;-86
2021/10/27 03:31:14;;;;;;;31.40;16.42;;;;;;;;;;5019352;28;20088;-86
2021/10/27 03:33:42;;;;;;;39.10;16.80;;;;;;;;;;5018659;28;20056;-86
2021/10/27 03:36:09;;;;;;;38.08;16.80;;;;;;;;;;5019202;28;20050;-86
2021/10/27 03:38:36;;;;;;;41.05;16.73;;;;;;;;;;5019388;28;20144;-86
2021/10/27 03:41:04;;;;;;;42.10;16.58;;;;;;;;;;5013368;28;20065;-86
2021/10/27 03:43:31;;;;;;;37.15;18.30;;;;;;;;;;5017964;28;20802;-86
2021/10/27 03:45:59;;;;;;;36.35;16.83;;;;;;;;;;5019622;28;20064;-86
2021/10/27 03:48:27;;;;;;;36.85;16.85;;;;;;;;;;5010937;28;20597;-85
2021/10/27 03:50:54;;;;;;;40.53;16.55;;;;;;;;;;5016414;28;20145;-87
2021/10/27 03:53:21;;;;;;;38.00;16.48;;;;;;;;;;5016767;28;20164;-87
2021/10/27 03:55:48;;;;;;;47.05;17.10;;;;;;;;;;5019278;28;20081;-86
2021/10/27 03:58:16;;;;;;;47.05;15.88;;;;;;;;;;5029980;22;20063;-77
2021/10/27 04:00:43;;;;;;;33.53;15.73;;;;;;;;;;5033754;28;20053;-77
2021/10/27 04:03:12;;;;;;;39.30;16.02;;;;;;;;;;5032880;28;20689;-77
2021/10/27 04:05:39;;;;;;;33.03;16.00;;;;;;;;;;5017348;28;20175;-77
2021/10/27 04:08:06;;;;;;;37.03;16.02;;;;;;;;;;5034778;28;20045;-76
2021/10/27 04:10:34;;;;;;;37.55;15.98;;;;;;;;;;5020832;28;20049;-77
2021/10/27 04:13:02;;;;;;;38.75;15.25;;;;;;;;;;5038903;28;20131;-76
2021/10/27 04:15:29;;;;;;;38.55;16.10;;;;;;;;;;5039024;28;20053;-77
2021/10/27 04:17:56;;;;;;;32.08;14.82;;;;;;;;;;5031570;28;20853;-76
2021/10/27 04:20:24;;;;;;;34.58;15.38;;;;;;;;;;5028226;28;20053;-77
2021/10/27 04:22:51;;;;;;;40.30;16.30;;;;;;;;;;5007740;28;20045;-77
2021/10/27 04:25:18;;;;;;;44.08;16.75;;;;;;;;;;5015083;28;20195;-77
2021/10/27 04:27:45;;;;;;;39.15;16.50;;;;;;;;;;5024177;28;20051;-77
2021/10/27 04:30:12;;;;;;;38.17;15.98;;;;;;;;;;5043841;28;20045;-77
2021/10/27 04:32:41;;;;;;;37.65;15.80;;;;;;;;;;5044295;28;20156;-77
2021/10/27 04:35:09;;;;;;;28.58;14.35;;;;;;;;;;5046841;28;20138;-77
2021/10/27 04:37:39;;;;;;;32.78;15.93;;;;;;;;;;5031508;28;20096;-77
2021/10/27 04:40:08;;;;;;;32.90;16.33;;;;;;;;;;5030800;28;20051;-77
2021/10/27 04:42:36;;;;;;;31.67;15.45;;;;;;;;;;5032989;28;20049;-77
2021/10/27 04:45:04;;;;;;;31.45;15.02;;;;;;;;;;5026627;28;20220;-77
2021/10/27 04:47:31;;;;;;;32.28;15.90;;;;;;;;;;5033731;28;20067;-77
2021/10/27 04:49:58;;;;;;;37.83;16.10;;;;;;;;;;5047034;28;20112;-77
2021/10/27 04:52:26;;;;;;;37.28;15.05;;;;;;;;;;5027369;28;20049;-76
2021/10/27 04:54:53;;;;;;;32.53;14.77;;;;;;;;;;5041283;28;20135;-77
2021/10/27 04:57:20;;;;;;;32.20;15.65;;;;;;;;;;5035700;28;20143;-77
2021/10/27 04:59:47;;;;;;;39.90;15.13;;;;;;;;;;5053480;28;20156;-76
2021/10/27 05:02:16;;;;;;;35.38;16.00;;;;;;;;;;5048706;28;20468;-77
2021/10/27 05:04:44;;;;;;;29.98;15.38;;;;;;;;;;5044019;28;20048;-76
2021/10/27 05:07:14;;;;;;;35.95;15.23;;;;;;;;;;5032116;28;20054;-77
2021/10/27 05:09:42;;;;;;;32.03;15.20;;;;;;;;;;5031595;28;20808;-77
2021/10/27 05:12:10;;;;;;;35.58;15.38;;;;;;;;;;5048357;28;20131;-76
2021/10/27 05:14:39;;;;;;;39.58;15.30;;;;;;;;;;5027573;28;20076;-76
2021/10/27 05:17:10;;;;;;;30.88;14.73;;;;;;;;;;5027706;28;20482;-77
2021/10/27 05:19:41;;;;;;;31.08;14.98;;;;;;;;;;5044822;28;20149;-77
2021/10/27 05:22:09;;;;;;;40.35;15.07;;;;;;;;;;5041883;28;20052;-77
2021/10/27 05:24:36;;;;;;;32.45;15.18;;;;;;;;;;5043425;28;20553;-78
2021/10/27 05:27:04;;;;;;;36.45;15.20;;;;;;;;;;5027090;28;20063;-78
2021/10/27 05:29:31;;;;;;;30.27;14.18;;;;;;;;;;5032923;28;20099;-77
2021/10/27 05:31:59;;;;;;;41.45;15.02;;;;;;;;;;5030685;28;20595;-80
2021/10/27 05:34:28;;;;;;;34.63;15.40;;;;;;;;;;5044556;28;20681;-79
2021/10/27 05:36:55;;;;;;;36.78;14.93;;;;;;;;;;5041475;28;20178;-79
2021/10/27 05:39:22;;;;;;;31.17;14.30;;;;;;;;;;5043232;28;20164;-77
2021/10/27 05:41:49;;;;;;;29.90;14.75;;;;;;;;;;5045534;28;20555;-81
2021/10/27 05:44:18;;;;;;;31.85;14.52;;;;;;;;;;5042037;28;20462;-78
2021/10/27 05:46:47;;;;;;;31.55;14.80;;;;;;;;;;5035915;28;20864;-77
2021/10/27 05:51:46;;;;;;;33.42;16.17;;;;;;;;;;5050034;28;20113;-76
2021/10/27 05:56:59;;;;;;;29.15;14.63;;;;;;;;;;5049142;28;20084;-79
2021/10/27 05:59:27;;;;;;;37.17;17.02;;;;;;;;;;5034540;28;20148;-79
2021/10/27 06:01:54;;;;;;;31.90;15.75;;;;;;;;;;5034946;28;20052;-79
2021/10/27 06:04:21;;;;;;;33.53;15.32;;;;;;;;;;5051166;28;20098;-79
2021/10/27 06:06:48;;;;;;;38.05;15.00;;;;;;;;;;5046200;28;20128;-78
2021/10/27 06:09:16;;;;;;;33.83;15.65;;;;;;;;;;5048150;28;20080;-79
2021/10/27 06:11:44;;;;;;;33.78;15.63;;;;;;;;;;5051193;28;20132;-79
2021/10/27 06:14:11;;;;;;;35.28;15.95;;;;;;;;;;5044105;28;20124;-79
2021/10/27 06:16:44;;;;;;;38.28;15.98;;;;;;;;;;5041497;28;20055;-79
2021/10/27 06:19:11;;;;;;;31.60;15.73;;;;;;;;;;5049359;28;20520;-79
2021/10/27 06:21:39;;;;;;;30.55;14.77;;;;;;;;;;5032647;28;20136;-78
2021/10/27 06:24:07;;;;;;;30.38;14.77;;;;;;;;;;5033984;28;20077;-79
2021/10/27 06:26:34;;;;;;;36.40;17.38;;;;;;;;;;5032597;28;20127;-79
2021/10/27 06:29:07;;;;;;;39.53;14.90;;;;;;;;;;5031760;28;20094;-78
2021/10/27 06:31:38;;;;;;;32.45;17.17;;;;;;;;;;5042989;28;20071;-79
2021/10/27 06:47:36;;;;;;;40.00;15.25;;;;;;;;;;5042502;28;20068;-78
2021/10/27 06:50:03;;;;;;;35.83;17.20;;;;;;;;;;5039680;28;20053;-78
2021/10/27 06:52:31;;;;;;;38.75;16.98;;;;;;;;;;5028376;28;20048;-78
2021/10/27 06:54:58;;;;;;;29.25;15.20;;;;;;;;;;5035798;28;20045;-79
2021/10/27 06:57:27;;;;;;;37.40;16.70;;;;;;;;;;5028210;28;20136;-78
2021/10/27 06:59:59;;;;;;;33.00;15.65;;;;;;;;;;5038879;28;20664;-78
2021/10/27 07:02:45;;;;;;;35.33;16.05;;;;;;;;;;5048342;28;20172;-78
2021/10/27 07:05:31;;;;;;;;;;;;;;;;;;5048994;28;20152;-78
2021/10/27 07:16:30;;;;;;;37.50;16.50;;;;;;;;;;5049255;28;20132;-79
2021/10/27 07:18:57;;;;;;;34.88;16.35;;;;;;;;;;5021136;28;20179;-78
2021/10/27 07:21:24;;;;;;;33.55;16.00;;;;;;;;;;5047544;28;20597;-78
2021/10/27 07:23:51;;;;;;;38.28;17.40;;;;;;;;;;5043048;28;20077;-78
2021/10/27 07:26:19;;;;;;;31.15;15.73;;;;;;;;;;5028134;28;20136;-79
2021/10/27 07:28:49;;;;;;;37.55;17.10;;;;;;;;;;5036691;28;20049;-78
2021/10/27 07:31:17;;;;;;;36.72;16.33;;;;;;;;;;5037902;28;20136;-79
2021/10/27 07:33:54;;;;;;;38.78;16.90;;;;;;;;;;5035741;28;20136;-78
2021/10/27 07:41:34;;;;;;;35.83;17.20;;;;;;;;;;5043626;28;20053;-78
2021/10/27 07:44:13;;;;;;;30.55;16.95;;;;;;;;;;5028306;28;20136;-79
2021/10/27 07:46:41;;;;;;;32.65;14.85;;;;;;;;;;5028933;28;20104;-78
2021/10/27 07:49:08;;;;;;;33.60;15.95;;;;;;;;;;5028822;28;20131;-79
2021/10/27 07:51:35;;;;;;;27.48;16.35;;;;;;;;;;5033135;28;20102;-78
2021/10/27 07:54:03;;;;;;;36.97;15.48;;;;;;;;;;5044477;28;20595;-78
2021/10/27 07:56:32;;;;;;;38.20;16.58;;;;;;;;;;5032103;28;20148;-79
2021/10/27 07:59:02;;;;;;;37.05;16.08;;;;;;;;;;5043618;28;20133;-78
2021/10/27 08:01:29;;;;;;;31.58;15.35;;;;;;;;;;5032970;28;20779;-78
2021/10/27 08:03:57;;;;;;;34.30;15.38;;;;;;;;;;5043748;28;20053;-79
2021/10/27 08:06:24;;;;;;;31.45;15.93;;;;;;;;;;5026270;28;20098;-78
2021/10/27 08:08:51;;;;;;;37.17;16.85;;;;;;;;;;5026625;28;20672;-78
2021/10/27 08:11:18;;;;;;;31.90;15.35;;;;;;;;;;5027173;28;20084;-78
2021/10/27 08:13:45;;;;;;;34.67;16.02;;;;;;;;;;5029139;28;20140;-78
2021/10/27 08:16:13;;;;;;;41.70;16.02;;;;;;;;;;5048431;28;20088;-88
2021/10/27 08:18:40;;;;;;;32.20;15.43;;;;;;;;;;5028462;28;20155;-88
2021/10/27 08:21:07;;;;;;;34.00;17.95;;;;;;;;;;5054396;28;20080;-88
2021/10/27 08:23:39;;;;;;;35.88;16.10;;;;;;;;;;5034934;28;20140;-88
2021/10/27 08:26:15;;;;;;;31.33;15.95;;;;;;;;;;5032859;28;20045;-87
2021/10/27 08:28:48;;;;;;;30.35;14.93;;;;;;;;;;5041092;28;20528;-86
2021/10/27 08:36:28;;;;;;;32.13;15.05;;;;;;;;;;5052669;28;20095;-89
2021/10/27 08:38:55;;;;;;;26.15;14.98;;;;;;;;;;5033586;28;20128;-88
2021/10/27 08:41:52;;;;;;;28.17;15.00;;;;;;;;;;5031854;28;20477;-88
2021/10/27 08:44:19;;;;;;;35.90;14.65;;;;;;;;;;5035445;28;20075;-88
2021/10/27 08:46:47;;;;;;;27.02;14.75;;;;;;;;;;5047319;28;20084;-88
2021/10/27 08:49:15;;;;;;;35.20;14.77;;;;;;;;;;5048372;28;20069;-88
2021/10/27 08:51:43;;;;;;;30.58;14.93;;;;;;;;;;5052114;28;20087;-87
2021/10/27 08:54:11;;;;;;;29.00;14.32;;;;;;;;;;5052450;28;20414;-87
2021/10/27 08:56:40;;;;;;;29.92;14.30;;;;;;;;;;5051427;28;20342;-87
2021/10/27 08:59:14;;;;;;;30.90;13.18;;;;;;;;;;5051875;28;20114;-87
2021/10/27 09:01:57;;;;;;;26.98;13.75;;;;;;;;;;5051070;28;20722;-87
2021/10/27 09:04:34;;;;;;;31.10;13.57;;;;;;;;;;5050907;28;20098;-87
2021/10/27 09:07:31;;;;;;;37.55;16.75;;;;;;;;;;5051800;28;20095;-87
2021/10/27 09:15:43;;;;;;;25.17;13.27;;;;;;;;;;5056771;28;20049;-87
2021/10/27 09:35:56;;;;;;;31.42;14.00;;;;;;;;;;5051767;28;20092;-87
2021/10/27 10:04:17;;;;;;;33.85;13.30;;;;;;;;;;5035543;28;20056;-87
2021/10/27 10:06:52;;;;;;;31.33;14.15;;;;;;;;;;5051553;28;20072;-86
2021/10/27 10:09:19;;;;;;;26.85;12.20;;;;;;;;;;5033497;28;20072;-86
2021/10/27 10:11:47;;;;;;;24.52;12.13;;;;;;;;;;5034781;28;20163;-88
2021/10/27 10:14:14;;;;;;;25.98;12.88;;;;;;;;;;5030981;28;20418;-87
2021/10/27 10:16:42;;;;;;;23.58;12.25;;;;;;;;;;5045892;28;20068;-87
2021/10/27 10:19:12;;;;;;;22.50;11.98;;;;;;;;;;5028877;28;20107;-86
2021/10/27 10:21:43;;;;;;;25.67;12.15;;;;;;;;;;5031879;28;20775;-86
2021/10/27 10:24:17;;;;;;;25.67;12.90;;;;;;;;;;5037173;28;20128;-87
2021/10/27 10:26:46;;;;;;;25.60;12.55;;;;;;;;;;5050533;28;20140;-86
2021/10/27 10:29:32;;;;;;;22.05;11.68;;;;;;;;;;5047694;28;20045;-87
2021/10/27 10:32:20;;;;;;;27.00;12.90;;;;;;;;;;5055058;28;20192;-86
2021/10/27 10:34:52;;;;;;;24.38;12.15;;;;;;;;;;5054468;28;20045;-87
2021/10/27 10:37:35;;;;;;;25.40;12.70;;;;;;;;;;5037315;28;20122;-86
2021/10/27 10:56:59;;;;;;;30.23;14.93;;;;;;;;;;5058234;28;20136;-87
2021/10/27 11:41:09;;;;;;;26.75;12.02;;;;;;;;;;5047640;28;20441;-89
2021/10/27 11:44:09;;;;;;;19.90;11.90;;;;;;;;;;5043047;28;20134;-90
2021/10/27 11:47:08;;;;;;;25.60;11.82;;;;;;;;;;5045826;28;20485;-88
2021/10/27 11:49:54;;;;;;;24.77;11.30;;;;;;;;;;5037808;28;20464;-85
2021/10/27 11:52:30;;;;;;;20.33;10.32;;;;;;;;;;5059047;28;20051;-82
2021/10/27 11:54:57;;;;;;;30.42;10.70;;;;;;;;;;5042472;28;20136;-85
2021/10/27 11:57:29;;;;;;;17.50;10.35;;;;;;;;;;5028910;28;20055;-81
2021/10/27 11:59:56;;;;;;;21.42;10.43;;;;;;;;;;5028263;28;20747;-79
2021/10/27 12:02:25;;;;;;;28.55;11.25;;;;;;;;;;5049385;28;20533;-78
2021/10/27 12:04:54;;;;;;;19.35;11.10;;;;;;;;;;5024147;28;20179;-78
2021/10/27 12:07:39;;;;;;;19.10;9.98;;;;;;;;;;5037136;28;20053;-84
2021/10/27 12:10:24;;;;;;;21.00;9.82;;;;;;;;;;5040874;28;20182;-79
2021/10/27 12:13:02;;;;;;;17.90;10.02;;;;;;;;;;5043436;28;20045;-79
2021/10/27 12:18:10;;;;;;;17.70;8.68;;;;;;;;;;5039116;28;20433;-79
2021/10/27 12:20:42;;;;;;;12.20;8.45;;;;;;;;;;5013057;28;20057;-79
2021/10/27 12:23:17;;;;;;;11.73;8.02;;;;;;;;;;5028462;28;20652;-79
2021/10/27 12:25:44;;;;;;;21.83;9.63;;;;;;;;;;5010052;28;20134;-79
2021/10/27 12:28:23;;;;;;;19.60;7.95;;;;;;;;;;5029644;28;20168;-79
2021/10/27 12:30:50;;;;;;;14.57;8.43;;;;;;;;;;5022441;28;20047;-80
2021/10/27 12:33:17;;;;;;;12.80;8.13;;;;;;;;;;5048183;28;20087;-79
2021/10/27 12:35:44;;;;;;;16.75;7.63;;;;;;;;;;5038030;28;20057;-80
2021/10/27 12:38:34;;;;;;;12.73;7.32;;;;;;;;;;5033418;28;20048;-79
2021/10/27 12:41:13;;;;;;;13.88;6.68;;;;;;;;;;5038377;28;20107;-79
2021/10/27 12:43:42;;;;;;;10.00;7.00;;;;;;;;;;5051338;28;20143;-79
2021/10/27 12:46:20;;;;;;;11.82;7.15;;;;;;;;;;5035000;28;20138;-79
2021/10/27 12:48:47;;;;;;;11.10;6.75;;;;;;;;;;5049933;28;20076;-79
2021/10/27 12:51:14;;;;;;;18.23;7.72;;;;;;;;;;5042738;28;20128;-79
2021/10/27 12:53:50;;;;;;;12.15;6.63;;;;;;;;;;5051120;28;20068;-79
2021/10/27 12:56:25;;;;;;;12.65;7.55;;;;;;;;;;5048901;28;20052;-80
2021/10/27 12:59:09;;;;;;;21.27;6.70;;;;;;;;;;5039469;28;20076;-79
2021/10/27 13:22:52;;;;;;;9.98;6.45;;;;;;;;;;5045756;28;20787;-84
2021/10/27 13:31:07;;;;;;;11.13;6.93;;;;;;;;;;5051482;28;20152;-84
2021/10/27 13:33:36;;;;;;;11.35;6.88;;;;;;;;;;5053438;28;20853;-84
2021/10/27 13:36:04;;;;;;;11.77;6.32;;;;;;;;;;5043488;28;20468;-84
2021/10/27 13:38:39;;;;;;;12.50;5.97;;;;;;;;;;5048440;28;20057;-84
2021/10/27 13:41:08;;;;;;;14.63;6.22;;;;;;;;;;5041832;28;20053;-84
2021/10/27 13:43:40;;;;;;;8.95;5.75;;;;;;;;;;5045268;28;20072;-84
2021/10/27 13:46:31;;;;;;;12.90;6.22;;;;;;;;;;5028609;28;20048;-83
2021/10/27 13:57:42;;;;;;;12.50;6.30;;;;;;;;;;5017972;28;20049;-78
2021/10/27 13:57:48;;;;;;;14.80;6.68;;;;;;;;;;5033302;28;20147;-79
2021/10/27 14:06:04;;;;;;;;;;;;;;;;;;5043330;28;20044;-79
2021/10/27 14:47:29;;;;;;;15.27;7.32;;;;;;;;;;5050931;28;20049;-80
2021/10/27 15:20:07;;;;;;;13.98;8.45;;;;;;;;;;5048876;28;20583;-79
2021/10/27 15:22:46;;;;;;;15.00;8.00;;;;;;;;;;5049392;28;20073;-80
2021/10/27 15:30:46;;;;;;;22.42;8.13;;;;;;;;;;5043907;28;20135;-78
2021/10/27 15:51:28;;;;;;;17.33;9.82;;;;;;;;;;5046214;28;20041;-77
2021/10/27 15:53:56;;;;;;;17.67;9.70;;;;;;;;;;5029421;28;20115;-77
2021/10/27 15:56:23;;;;;;;19.45;9.25;;;;;;;;;;5046832;28;20499;-78
2021/10/27 15:58:51;;;;;;;16.25;9.35;;;;;;;;;;5040620;28;20462;-77
2021/10/27 16:01:18;;;;;;;14.68;9.25;;;;;;;;;;5039321;28;20144;-78
2021/10/27 16:03:45;;;;;;;16.85;8.60;;;;;;;;;;5043631;28;20049;-77
2021/10/27 16:06:15;;;;;;;12.85;7.70;;;;;;;;;;5045655;28;20087;-78
2021/10/27 16:08:46;;;;;;;13.02;8.68;;;;;;;;;;5037909;28;20073;-78
2021/10/27 16:11:13;;;;;;;16.20;8.10;;;;;;;;;;5046567;28;20454;-77
2021/10/27 16:13:40;;;;;;;13.25;8.30;;;;;;;;;;5044139;28;20670;-77
2021/10/27 16:16:08;;;;;;;10.75;7.68;;;;;;;;;;5043054;28;20091;-77
2021/10/27 16:18:36;;;;;;;11.80;7.28;;;;;;;;;;5041058;28;20061;-77
2021/10/27 16:21:05;;;;;;;16.00;7.57;;;;;;;;;;5036455;28;20144;-77
2021/10/27 16:23:32;;;;;;;14.93;7.25;;;;;;;;;;5045015;28;20057;-77
2021/10/27 16:26:00;;;;;;;10.60;7.15;;;;;;;;;;5045026;28;20148;-77
2021/10/27 16:28:28;;;;;;;9.32;6.50;;;;;;;;;;5028084;28;20044;-78
2021/10/27 16:30:55;;;;;;;14.32;7.10;;;;;;;;;;5042743;28;20044;-78
2021/10/27 16:33:22;;;;;;;14.23;6.32;;;;;;;;;;5044948;28;20048;-78
2021/10/27 16:35:51;;;;;;;13.65;6.18;;;;;;;;;;5047450;28;21405;-78
2021/10/27 16:38:18;;;;;;;10.10;5.07;;;;;;;;;;5042612;28;20102;-77
2021/10/27 16:40:45;;;;;;;10.60;4.60;;;;;;;;;;5024214;28;20056;-76
2021/10/27 16:43:13;;;;;;;13.43;3.90;;;;;;;;;;5041544;28;20080;-78
2021/10/27 16:45:40;;;;;;;11.60;4.43;;;;;;;;;;5039557;28;20049;-79
2021/10/27 16:48:07;;;;;;;12.60;4.88;;;;;;;;;;5040146;28;20056;-80
2021/10/27 16:50:35;;;;;;;10.63;4.68;;;;;;;;;;5050817;28;20045;-80
2021/10/27 16:53:02;;;;;;;9.70;4.15;;;;;;;;;;5041753;28;20099;-79
2021/10/27 16:55:34;;;;;;;12.43;4.60;;;;;;;;;;5022809;28;20041;-79
2021/10/27 16:58:03;;;;;;;8.23;4.38;;;;;;;;;;5041191;28;20089;-77
2021/10/27 17:00:32;;;;;;;10.30;4.43;;;;;;;;;;5033270;28;20129;-78
2021/10/27 17:02:59;;;;;;;9.05;4.25;;;;;;;;;;5035463;28;20056;-79
2021/10/27 17:05:27;;;;;;;9.57;4.28;;;;;;;;;;5047252;28;20072;-88
2021/10/27 17:07:57;;;;;;;10.57;3.88;;;;;;;;;;5047805;28;20049;-87
2021/10/27 17:10:35;;;;;;;11.90;4.43;;;;;;;;;;5047904;28;20072;-89
2021/10/27 17:13:03;;;;;;;9.68;4.70;;;;;;;;;;5051113;28;20810;-88
2021/10/27 17:15:34;;;;;;;12.35;4.93;;;;;;;;;;5051131;28;20089;-87
2021/10/27 17:18:02;;;;;;;10.32;4.72;;;;;;;;;;5046926;28;20541;-89
2021/10/27 17:20:29;;;;;;;16.45;5.05;;;;;;;;;;5030128;28;20045;-88
2021/10/27 17:23:00;;;;;;;11.77;5.07;;;;;;;;;;5042323;28;20132;-87
2021/10/27 17:25:28;;;;;;;6.38;3.90;;;;;;;;;;5031801;28;20155;-89
2021/10/27 17:28:03;;;;;;;12.52;5.03;;;;;;;;;;5045634;28;20462;-90
2021/10/27 17:30:36;;;;;;;;;;;;;;;;;;5047999;28;20624;-89
2021/10/27 17:33:06;;;;;;;6.20;4.15;;;;;;;;;;5036275;28;19936;-90
2021/10/27 17:35:38;;;;;;;8.90;4.70;;;;;;;;;;5044295;28;20505;-89
2021/10/27 17:38:06;;;;;;;12.23;5.05;;;;;;;;;;5066976;28;20132;-90
2021/10/27 17:40:44;;;;;;;10.98;4.75;;;;;;;;;;5055388;28;20060;-90
2021/10/27 17:43:12;;;;;;;11.38;4.57;;;;;;;;;;5051611;28;20053;-89
2021/10/27 17:45:41;;;;;;;15.50;5.15;;;;;;;;;;5037544;28;20132;-90
2021/10/27 17:48:19;;;;;;;12.68;4.60;;;;;;;;;;5055072;28;20099;-89
2021/10/27 17:58:48;;;;;;;8.88;4.70;;;;;;;;;;5054451;28;20137;-87
2021/10/27 18:01:17;;;;;;;7.15;4.03;;;;;;;;;;5052428;28;20397;-88
2021/10/27 18:03:45;;;;;;;8.90;4.35;;;;;;;;;;5053968;28;20048;-88
2021/10/27 18:06:14;;;;;;;11.60;4.38;;;;;;;;;;5042230;28;20761;-88
2021/10/27 18:08:43;;;;;;;11.55;4.28;;;;;;;;;;5053625;28;20068;-88
2021/10/27 18:11:13;;;;;;;12.45;4.82;;;;;;;;;;5039242;28;20045;-88
2021/10/27 18:13:47;;;;;;;11.23;4.72;;;;;;;;;;5036834;28;20076;-88
2021/10/27 18:16:28;;;;;;;9.20;4.90;;;;;;;;;;5042931;28;20084;-87
2021/10/27 18:19:22;;;;;;;17.65;4.75;;;;;;;;;;5035349;28;20084;-88
2021/10/27 18:21:59;;;;;;;12.60;4.85;;;;;;;;;;5052860;28;20095;-87
2021/10/27 18:37:47;;;;;;;12.23;5.22;;;;;;;;;;5049627;28;20149;-79
2021/10/27 18:43:05;;;;;;;11.57;4.72;;;;;;;;;;5044192;28;20132;-79
2021/10/27 18:45:33;;;;;;;13.27;4.22;;;;;;;;;;5048741;28;20049;-80
2021/10/27 18:48:00;;;;;;;12.25;4.45;;;;;;;;;;5050040;28;20053;-79
2021/10/27 18:50:36;;;;;;;10.68;4.32;;;;;;;;;;5044799;28;20048;-79
2021/10/27 18:56:34;;;;;;;8.43;4.00;;;;;;;;;;5011391;22;20060;-86
2021/10/27 19:12:41;;;;;;;;;;;;;;;;;;5023732;28;20099;-89
2021/10/27 19:15:22;;;;;;;14.32;4.25;;;;;;;;;;5020909;28;20366;-89
2021/10/27 19:18:29;;;;;;;14.23;4.38;;;;;;;;;;5018287;28;20052;-79
2021/10/27 19:20:57;;;;;;;8.38;4.00;;;;;;;;;;5018789;28;21427;-79
2021/10/27 19:23:25;;;;;;;14.70;4.00;;;;;;;;;;4994244;28;20147;-78
2021/10/27 19:34:50;;;;;;;10.32;4.75;;;;;;;;;;4966041;28;20986;-78
2021/10/27 20:10:36;;;;;;;12.20;4.95;;;;;;;;;;5015547;28;20049;-87
2021/10/27 20:51:29;;;;;;;9.27;5.20;;;;;;;;;;4958967;28;20047;-88
2021/10/27 20:53:58;;;;;;;13.85;6.03;;;;;;;;;;4956036;28;20075;-89
2021/10/27 20:56:27;;;;;;;15.95;6.00;;;;;;;;;;4988199;28;20084;-88
2021/10/27 20:59:10;;;;;;;12.13;6.93;;;;;;;;;;5000502;28;20041;-88
2021/10/27 21:01:54;;;;;;;14.75;6.68;;;;;;;;;;5003556;28;20053;-88
2021/10/27 21:14:59;;;;;;;15.23;6.97;;;;;;;;;;5024433;28;20099;-87
2021/10/27 21:17:27;;;;;;;15.23;6.10;;;;;;;;;;5024728;28;20046;-87
2021/10/27 21:19:55;;;;;;;9.90;6.68;;;;;;;;;;5004854;28;20045;-87
2021/10/27 21:22:24;;;;;;;11.90;6.55;;;;;;;;;;5024195;28;20202;-87
2021/10/27 21:24:54;;;;;;;16.10;6.70;;;;;;;;;;5007522;28;20045;-88
2021/10/27 21:28:00;;;;;;;9.98;6.18;;;;;;;;;;5007319;28;20141;-88
2021/10/27 21:44:17;;;;;;;14.15;7.13;;;;;;;;;;5016163;28;20462;-87
2021/10/27 21:46:44;;;;;;;17.35;7.97;;;;;;;;;;5018226;28;20450;-87